createdAt,value
2017-07-15T00:00:25.993Z,18.11
2017-07-15T00:02:54.340Z,18.13
2017-07-15T00:05:22.728Z,18.32
2017-07-15T00:07:51.405Z,18.04
2017-07-15T00:10:19.751Z,18.28
2017-07-15T00:12:48.089Z,18.41
2017-07-15T00:15:17.592Z,18.37
2017-07-15T00:17:45.937Z,18.30
2017-07-15T00:20:14.289Z,18.28
2017-07-15T00:22:43.136Z,18.29
2017-07-15T00:25:11.473Z,18.34
2017-07-15T00:27:39.811Z,18.32
2017-07-15T00:30:08.473Z,18.41
2017-07-15T00:32:36.827Z,18.52
2017-07-15T00:35:05.188Z,18.58
2017-07-15T00:37:34.254Z,18.51
2017-07-15T00:40:02.583Z,18.60
2017-07-15T00:42:30.900Z,18.69
2017-07-15T00:45:00.279Z,18.75
2017-07-15T00:47:28.631Z,18.63
2017-07-15T00:49:56.957Z,18.26
2017-07-15T00:52:26.402Z,18.10
2017-07-15T00:54:54.746Z,18.27
2017-07-15T00:57:23.851Z,18.29
2017-07-15T00:59:52.770Z,18.58
2017-07-15T01:02:21.114Z,18.68
2017-07-15T01:04:49.462Z,18.65
2017-07-15T01:07:18.078Z,18.61
2017-07-15T01:09:46.436Z,18.68
2017-07-15T01:12:14.786Z,18.64
2017-07-15T01:14:43.520Z,18.59
2017-07-15T01:17:11.859Z,18.60
2017-07-15T01:19:40.196Z,18.56
2017-07-15T01:22:09.177Z,18.31
2017-07-15T01:24:37.515Z,18.18
2017-07-15T01:27:05.855Z,18.28
2017-07-15T01:29:34.476Z,18.07
2017-07-15T01:32:02.827Z,18.13
2017-07-15T01:34:31.171Z,18.11
2017-07-15T01:36:59.867Z,18.02
2017-07-15T01:39:28.230Z,18.08
2017-07-15T01:41:56.593Z,18.14
2017-07-15T01:44:25.562Z,18.11
2017-07-15T01:46:53.932Z,18.35
2017-07-15T01:49:22.252Z,18.31
2017-07-15T01:51:51.145Z,18.33
2017-07-15T01:54:19.503Z,18.24
2017-07-15T01:56:47.889Z,18.24
2017-07-15T01:59:16.554Z,18.13
2017-07-15T02:01:44.896Z,18.03
2017-07-15T02:04:13.237Z,18.03
2017-07-15T02:06:42.054Z,17.94
2017-07-15T02:09:10.404Z,18.03
2017-07-15T02:11:38.779Z,17.82
2017-07-15T02:14:07.703Z,17.74
2017-07-15T02:16:36.028Z,17.67
2017-07-15T02:19:04.378Z,17.74
2017-07-15T02:21:33.339Z,17.34
2017-07-15T02:24:01.713Z,17.33
2017-07-15T02:26:30.079Z,17.45
2017-07-15T02:28:59.095Z,17.32
2017-07-15T02:31:27.456Z,17.24
2017-07-15T02:33:55.802Z,17.20
2017-07-15T02:36:24.645Z,17.05
2017-07-15T02:38:52.973Z,17.26
2017-07-15T02:41:21.313Z,17.07
2017-07-15T02:43:50.207Z,17.14
2017-07-15T02:46:18.559Z,17.14
2017-07-15T02:48:47.895Z,16.94
2017-07-15T02:51:16.572Z,17.05
2017-07-15T02:53:44.924Z,17.18
2017-07-15T02:56:14.025Z,17.14
2017-07-15T02:58:43.476Z,17.20
2017-07-15T03:01:11.831Z,17.23
2017-07-15T03:03:40.171Z,17.27
2017-07-15T03:06:09.141Z,17.20
2017-07-15T03:08:37.529Z,17.21
2017-07-15T03:11:05.858Z,17.20
2017-07-15T03:13:34.753Z,17.19
2017-07-15T03:16:03.101Z,17.18
2017-07-15T03:18:32.202Z,17.14
2017-07-15T03:21:01.006Z,17.25
2017-07-15T03:23:29.329Z,17.21
2017-07-15T03:25:57.697Z,17.15
2017-07-15T03:28:26.358Z,17.19
2017-07-15T03:30:54.735Z,17.09
2017-07-15T03:33:23.092Z,17.18
2017-07-15T03:35:52.058Z,16.97
2017-07-15T03:38:20.407Z,17.18
2017-07-15T03:40:48.747Z,17.16
2017-07-15T03:43:17.533Z,17.24
2017-07-15T03:45:45.874Z,17.22
2017-07-15T03:48:14.198Z,17.45
2017-07-15T03:50:43.632Z,17.43
2017-07-15T03:53:11.961Z,17.52
2017-07-15T03:55:40.293Z,17.68
2017-07-15T03:58:09.031Z,17.70
2017-07-15T04:00:37.371Z,17.79
2017-07-15T04:03:05.712Z,17.71
2017-07-15T04:05:34.375Z,17.69
2017-07-15T04:08:02.710Z,17.70
2017-07-15T04:10:31.063Z,17.66
2017-07-15T04:12:59.919Z,17.61
2017-07-15T04:15:28.260Z,17.64
2017-07-15T04:17:56.626Z,17.75
2017-07-15T04:20:25.786Z,17.83
2017-07-15T04:22:54.143Z,17.94
2017-07-15T04:25:22.473Z,17.84
2017-07-15T04:27:51.241Z,17.83
2017-07-15T04:30:19.620Z,17.91
2017-07-15T04:32:48.719Z,18.00
2017-07-15T04:35:17.337Z,18.17
2017-07-15T04:37:45.692Z,18.18
2017-07-15T04:40:14.040Z,18.23
2017-07-15T04:42:42.954Z,18.16
2017-07-15T04:45:11.332Z,18.06
2017-07-15T04:47:40.413Z,18.07
2017-07-15T04:50:10.039Z,18.07
2017-07-15T04:52:38.366Z,18.20
2017-07-15T04:55:06.698Z,18.08
2017-07-15T04:57:35.473Z,18.30
2017-07-15T05:00:03.812Z,18.32
2017-07-15T05:02:32.131Z,18.18
2017-07-15T05:05:01.743Z,18.27
2017-07-15T05:07:30.109Z,18.28
2017-07-15T05:09:59.210Z,18.18
2017-07-15T05:12:28.692Z,18.36
2017-07-15T05:14:57.025Z,18.41
2017-07-15T05:17:25.362Z,18.38
2017-07-15T05:19:54.045Z,18.34
2017-07-15T05:22:22.374Z,18.01
2017-07-15T05:24:50.713Z,17.96
2017-07-15T05:27:20.543Z,18.12
2017-07-15T05:29:48.890Z,18.03
2017-07-15T05:32:17.237Z,18.08
2017-07-15T05:34:45.876Z,18.10
2017-07-15T05:37:14.985Z,18.27
2017-07-15T05:39:43.368Z,18.45
2017-07-15T05:42:12.047Z,18.49
2017-07-15T05:44:40.379Z,18.53
2017-07-15T05:47:08.724Z,18.44
2017-07-15T05:49:38.302Z,18.68
2017-07-15T05:52:06.655Z,18.75
2017-07-15T05:54:35.010Z,18.74
2017-07-15T05:57:03.692Z,18.79
2017-07-15T05:59:32.021Z,18.78
2017-07-15T06:02:00.350Z,18.54
2017-07-15T06:04:29.007Z,18.71
2017-07-15T06:06:57.348Z,18.71
2017-07-15T06:09:25.705Z,18.83
2017-07-15T06:11:54.506Z,18.89
2017-07-15T06:14:22.872Z,18.98
2017-07-15T06:16:51.229Z,18.50
2017-07-15T06:19:20.089Z,18.49
2017-07-15T06:21:48.444Z,18.03
2017-07-15T06:24:16.798Z,18.12
2017-07-15T06:26:45.730Z,17.66
2017-07-15T06:29:14.095Z,17.84
2017-07-15T06:31:42.436Z,18.10
2017-07-15T06:34:11.589Z,18.47
2017-07-15T06:36:39.922Z,18.74
2017-07-15T06:39:08.269Z,18.79
2017-07-15T06:41:36.970Z,18.98
2017-07-15T06:44:05.320Z,19.09
2017-07-15T06:46:33.667Z,19.25
2017-07-15T06:49:02.450Z,19.49
2017-07-15T06:51:30.834Z,19.68
2017-07-15T06:53:59.175Z,19.72
2017-07-15T06:56:28.152Z,19.43
2017-07-15T06:58:56.500Z,19.60
2017-07-15T07:01:25.627Z,19.71
2017-07-15T07:03:54.291Z,19.78
2017-07-15T07:06:23.404Z,19.79
2017-07-15T07:08:51.755Z,19.78
2017-07-15T07:11:20.385Z,19.78
2017-07-15T07:13:48.751Z,19.57
2017-07-15T07:16:17.091Z,19.42
2017-07-15T07:18:46.330Z,19.45
2017-07-15T07:21:14.662Z,19.22
2017-07-15T07:23:42.989Z,19.58
2017-07-15T07:26:11.677Z,19.59
2017-07-15T07:28:40.015Z,19.70
2017-07-15T07:31:08.335Z,19.63
2017-07-15T07:33:36.988Z,19.84
2017-07-15T07:36:05.334Z,19.98
2017-07-15T07:38:33.706Z,19.87
2017-07-15T07:41:02.591Z,20.01
2017-07-15T07:43:30.981Z,20.54
2017-07-15T07:45:59.301Z,20.84
2017-07-15T07:48:28.724Z,20.89
2017-07-15T07:50:57.077Z,20.90
2017-07-15T07:53:25.448Z,20.74
2017-07-15T07:55:54.070Z,20.79
2017-07-15T07:58:22.457Z,20.50
2017-07-15T08:00:50.795Z,20.63
2017-07-15T08:03:19.811Z,20.95
2017-07-15T08:05:48.155Z,20.87
2017-07-15T08:08:16.489Z,21.01
2017-07-15T08:10:45.283Z,20.21
2017-07-15T08:13:13.616Z,20.54
2017-07-15T08:15:41.972Z,20.94
2017-07-15T08:18:10.891Z,21.61
2017-07-15T08:20:39.215Z,21.40
2017-07-15T08:25:42.911Z,22.47
2017-07-15T08:28:11.278Z,22.05
2017-07-15T08:30:40.391Z,21.57
2017-07-15T08:33:09.150Z,21.95
2017-07-15T08:35:37.511Z,21.98
2017-07-15T08:38:05.845Z,22.50
2017-07-15T08:40:34.611Z,22.79
2017-07-15T08:43:02.978Z,23.13
2017-07-15T08:45:32.085Z,23.77
2017-07-15T08:48:00.797Z,23.58
2017-07-15T08:50:29.143Z,23.19
2017-07-15T08:52:57.936Z,23.09
2017-07-15T08:55:26.784Z,23.13
2017-07-15T08:57:55.128Z,23.32
2017-07-15T09:00:23.475Z,23.88
2017-07-15T09:02:52.370Z,24.32
2017-07-15T09:05:20.704Z,23.66
2017-07-15T09:07:49.046Z,23.67
2017-07-15T09:10:17.989Z,23.20
2017-07-15T09:12:46.343Z,22.18
2017-07-15T09:15:14.672Z,23.10
2017-07-15T09:17:44.297Z,23.59
2017-07-15T09:20:12.622Z,23.94
2017-07-15T09:22:40.950Z,23.80
2017-07-15T09:25:09.736Z,24.20
2017-07-15T09:27:38.080Z,24.52
2017-07-15T09:30:06.422Z,24.28
2017-07-15T09:32:35.621Z,24.48
2017-07-15T09:35:03.961Z,24.83
2017-07-15T09:37:32.286Z,25.38
2017-07-15T09:40:01.035Z,25.64
2017-07-15T09:42:29.375Z,25.32
2017-07-15T09:44:57.698Z,25.44
2017-07-15T09:47:26.410Z,25.95
2017-07-15T09:49:54.738Z,25.77
2017-07-15T09:52:23.063Z,25.94
2017-07-15T09:54:51.842Z,25.68
2017-07-15T09:57:20.175Z,25.52
2017-07-15T09:59:48.519Z,25.20
2017-07-15T10:02:17.166Z,25.53
2017-07-15T10:04:45.481Z,25.29
2017-07-15T10:07:13.903Z,25.15
2017-07-15T10:09:42.527Z,25.54
2017-07-15T10:12:10.868Z,24.98
2017-07-15T10:14:39.199Z,25.54
2017-07-15T10:17:08.121Z,26.08
2017-07-15T10:19:36.476Z,26.47
2017-07-15T10:22:04.816Z,26.76
2017-07-15T10:24:33.425Z,27.10
2017-07-15T10:27:01.803Z,27.03
2017-07-15T10:29:30.155Z,27.34
2017-07-15T10:31:59.159Z,27.38
2017-07-15T10:34:27.516Z,27.38
2017-07-15T10:36:56.628Z,27.81
2017-07-15T10:39:25.453Z,28.06
2017-07-15T10:41:53.816Z,27.52
2017-07-15T10:44:22.160Z,27.34
2017-07-15T10:46:50.798Z,27.47
2017-07-15T10:49:19.135Z,27.65
2017-07-15T10:51:47.486Z,27.42
2017-07-15T10:54:16.211Z,26.97
2017-07-15T10:56:44.555Z,27.14
2017-07-15T10:59:12.878Z,26.79
2017-07-15T11:01:41.858Z,26.93
2017-07-15T11:04:10.223Z,27.49
2017-07-15T11:06:38.578Z,27.75
2017-07-15T11:09:07.400Z,28.29
2017-07-15T11:11:35.820Z,27.88
2017-07-15T11:14:04.171Z,28.33
2017-07-15T11:16:32.848Z,28.77
2017-07-15T11:19:01.204Z,28.88
2017-07-15T11:21:29.560Z,29.00
2017-07-15T11:23:58.641Z,28.58
2017-07-15T11:26:27.010Z,28.76
2017-07-15T11:28:55.378Z,28.99
2017-07-15T11:31:24.148Z,28.87
2017-07-15T11:33:52.501Z,28.93
2017-07-15T11:36:20.834Z,29.49
2017-07-15T11:38:49.571Z,29.88
2017-07-15T11:41:17.903Z,30.12
2017-07-15T11:43:46.220Z,30.30
2017-07-15T11:46:15.758Z,29.90
2017-07-15T11:48:44.087Z,29.73
2017-07-15T11:51:12.430Z,29.94
2017-07-15T11:53:41.095Z,30.15
2017-07-15T11:56:09.456Z,30.39
2017-07-15T11:58:37.769Z,30.33
2017-07-15T12:01:06.533Z,30.09
2017-07-15T12:03:34.882Z,29.81
2017-07-15T12:06:03.220Z,29.30
2017-07-15T12:08:32.148Z,28.95
2017-07-15T12:11:00.519Z,28.93
2017-07-15T12:13:28.842Z,28.62
2017-07-15T12:15:58.303Z,28.35
2017-07-15T12:18:26.645Z,28.20
2017-07-15T12:20:54.978Z,27.64
2017-07-15T12:23:23.633Z,27.23
2017-07-15T12:25:51.972Z,26.85
2017-07-15T12:28:20.362Z,27.07
2017-07-15T12:30:49.360Z,27.27
2017-07-15T12:33:17.722Z,26.60
2017-07-15T12:35:46.063Z,26.00
2017-07-15T12:38:14.869Z,25.72
2017-07-15T12:40:43.212Z,25.53
2017-07-15T12:43:11.556Z,25.55
2017-07-15T12:45:40.461Z,25.41
2017-07-15T12:48:08.805Z,25.42
2017-07-15T12:50:37.924Z,25.32
2017-07-15T12:53:07.109Z,25.33
2017-07-15T12:55:35.462Z,25.12
2017-07-15T12:58:03.780Z,25.17
2017-07-15T13:00:32.597Z,25.29
2017-07-15T13:03:00.948Z,25.26
2017-07-15T13:05:29.315Z,25.23
2017-07-15T13:07:57.987Z,24.75
2017-07-15T13:10:26.333Z,25.10
2017-07-15T13:12:54.668Z,25.41
2017-07-15T13:15:23.659Z,25.55
2017-07-15T13:17:51.987Z,26.04
2017-07-15T13:20:20.525Z,26.24
2017-07-15T13:22:49.190Z,26.33
2017-07-15T13:25:18.296Z,26.82
2017-07-15T13:27:47.395Z,27.23
2017-07-15T13:30:16.795Z,27.61
2017-07-15T13:32:45.157Z,27.75
2017-07-15T13:35:13.508Z,27.41
2017-07-15T13:37:42.474Z,27.60
2017-07-15T13:40:10.810Z,27.87
2017-07-15T13:42:39.142Z,28.19
2017-07-15T13:45:07.928Z,28.33
2017-07-15T13:47:36.321Z,28.25
2017-07-15T13:50:04.651Z,28.15
2017-07-15T13:52:33.333Z,28.25
2017-07-15T13:55:01.671Z,28.44
2017-07-15T13:57:30.001Z,28.15
2017-07-15T13:59:59.001Z,28.05
2017-07-15T14:02:27.343Z,27.75
2017-07-15T14:04:55.695Z,27.50
2017-07-15T14:07:24.463Z,27.38
2017-07-15T14:09:52.799Z,27.17
2017-07-15T14:12:21.896Z,26.91
2017-07-15T14:14:51.280Z,26.55
2017-07-15T14:17:19.655Z,26.45
2017-07-15T14:19:48.017Z,26.66
2017-07-15T14:22:16.966Z,26.83
2017-07-15T14:24:45.282Z,26.88
2017-07-15T14:27:13.626Z,27.00
2017-07-15T14:29:42.267Z,27.18
2017-07-15T14:32:10.605Z,27.27
2017-07-15T14:34:38.950Z,27.44
2017-07-15T14:37:07.693Z,27.81
2017-07-15T14:39:36.043Z,27.91
2017-07-15T14:42:04.373Z,27.75
2017-07-15T14:44:33.316Z,27.42
2017-07-15T14:47:01.647Z,27.62
2017-07-15T14:49:30.001Z,27.82
2017-07-15T14:51:58.649Z,28.13
2017-07-15T14:54:26.999Z,28.05
2017-07-15T14:56:55.332Z,27.79
2017-07-15T14:59:24.198Z,27.57
2017-07-15T15:01:52.559Z,27.19
2017-07-15T15:04:21.654Z,27.60
2017-07-15T15:06:51.210Z,27.78
2017-07-15T15:09:19.550Z,28.02
2017-07-15T15:11:47.885Z,27.75
2017-07-15T15:14:16.734Z,27.18
2017-07-15T15:16:45.090Z,27.36
2017-07-15T15:19:14.209Z,27.39
2017-07-15T15:21:42.999Z,27.51
2017-07-15T15:24:11.354Z,27.35
2017-07-15T15:26:40.453Z,26.96
2017-07-15T15:29:09.972Z,26.97
2017-07-15T15:31:38.291Z,27.15
2017-07-15T15:34:06.623Z,26.94
2017-07-15T15:36:35.506Z,26.93
2017-07-15T15:39:03.839Z,26.78
2017-07-15T15:41:32.201Z,26.80
2017-07-15T15:44:00.862Z,26.45
2017-07-15T15:46:29.221Z,25.90
2017-07-15T15:48:57.553Z,25.77
2017-07-15T15:51:26.328Z,25.53
2017-07-15T15:53:54.669Z,25.81
2017-07-15T15:56:23.008Z,25.59
2017-07-15T15:58:51.628Z,25.70
2017-07-15T16:01:19.968Z,25.90
2017-07-15T16:03:48.302Z,25.85
2017-07-15T16:06:17.084Z,25.70
2017-07-15T16:08:45.465Z,25.49
2017-07-15T16:11:13.808Z,25.27
2017-07-15T16:13:42.581Z,25.17
2017-07-15T16:16:10.939Z,25.33
2017-07-15T16:18:39.266Z,25.32
2017-07-15T16:21:07.992Z,25.49
2017-07-15T16:23:36.322Z,25.57
2017-07-15T16:26:04.662Z,25.41
2017-07-15T16:28:33.440Z,25.39
2017-07-15T16:31:01.771Z,25.36
2017-07-15T16:33:30.125Z,25.32
2017-07-15T16:35:59.497Z,25.24
2017-07-15T16:38:27.809Z,25.05
2017-07-15T16:40:56.159Z,25.21
2017-07-15T16:43:24.786Z,25.20
2017-07-15T16:45:53.117Z,25.36
2017-07-15T16:48:21.451Z,25.28
2017-07-15T16:50:50.387Z,25.21
2017-07-15T16:53:18.735Z,25.29
2017-07-15T16:55:47.343Z,25.35
2017-07-15T16:58:16.228Z,25.37
2017-07-15T17:00:44.582Z,25.55
2017-07-15T17:03:12.918Z,25.85
2017-07-15T17:05:41.587Z,26.13
2017-07-15T17:08:09.918Z,26.19
2017-07-15T17:10:38.268Z,26.37
2017-07-15T17:13:06.924Z,26.37
2017-07-15T17:15:35.283Z,26.24
2017-07-15T17:18:04.379Z,26.03
2017-07-15T17:20:34.120Z,26.00
2017-07-15T17:23:02.456Z,25.52
2017-07-15T17:25:30.829Z,25.53
2017-07-15T17:27:59.644Z,25.61
2017-07-15T17:30:27.976Z,25.53
2017-07-15T17:32:56.316Z,25.36
2017-07-15T17:35:24.985Z,25.51
2017-07-15T17:37:54.113Z,25.68
2017-07-15T17:40:22.444Z,25.84
2017-07-15T17:42:51.395Z,25.61
2017-07-15T17:45:19.749Z,25.43
2017-07-15T17:47:48.111Z,25.52
2017-07-15T17:50:16.814Z,25.53
2017-07-15T17:52:45.162Z,25.42
2017-07-15T17:55:14.276Z,25.32
2017-07-15T17:57:44.296Z,25.44
2017-07-15T18:00:12.618Z,25.25
2017-07-15T18:02:40.955Z,25.06
2017-07-15T18:05:09.748Z,25.03
2017-07-15T18:07:38.108Z,25.02
2017-07-15T18:10:07.226Z,25.01
2017-07-15T18:12:36.005Z,25.02
2017-07-15T18:15:04.364Z,24.98
2017-07-15T18:17:32.695Z,24.99
2017-07-15T18:20:01.440Z,24.88
2017-07-15T18:22:29.803Z,24.74
2017-07-15T18:24:58.170Z,24.75
2017-07-15T18:27:27.093Z,24.54
2017-07-15T18:29:55.425Z,24.54
2017-07-15T18:32:23.758Z,24.79
2017-07-15T18:34:52.427Z,24.68
2017-07-15T18:37:21.523Z,24.51
2017-07-15T18:39:50.643Z,24.55
2017-07-15T18:42:19.305Z,24.43
2017-07-15T18:44:48.414Z,24.41
2017-07-15T18:47:16.777Z,24.31
2017-07-15T18:49:45.484Z,24.20
2017-07-15T18:52:13.821Z,24.15
2017-07-15T18:54:42.185Z,24.08
2017-07-15T18:57:10.942Z,23.99
2017-07-15T18:59:39.287Z,23.96
2017-07-15T19:02:07.636Z,23.94
2017-07-15T19:04:36.296Z,23.78
2017-07-15T19:07:04.641Z,23.71
2017-07-15T19:09:33.001Z,23.75
2017-07-15T19:12:02.035Z,23.74
2017-07-15T19:14:30.375Z,23.70
2017-07-15T19:16:58.722Z,23.59
2017-07-15T19:19:27.370Z,23.58
2017-07-15T19:21:56.483Z,23.58
2017-07-15T19:24:24.845Z,23.44
2017-07-15T19:26:53.485Z,23.44
2017-07-15T19:29:21.816Z,23.42
2017-07-15T19:31:50.150Z,23.25
2017-07-15T19:34:19.168Z,23.18
2017-07-15T19:36:47.499Z,23.11
2017-07-15T19:39:15.841Z,23.09
2017-07-15T19:41:44.474Z,23.02
2017-07-15T19:44:12.823Z,22.90
2017-07-15T19:46:41.160Z,22.95
2017-07-15T19:49:10.077Z,22.93
2017-07-15T19:51:38.402Z,22.93
2017-07-15T19:54:06.724Z,22.92
2017-07-15T19:56:35.466Z,22.79
2017-07-15T19:59:03.861Z,22.82
2017-07-15T20:01:32.195Z,22.76
2017-07-15T20:04:00.842Z,22.64
2017-07-15T20:06:29.950Z,22.51
2017-07-15T20:08:59.067Z,22.40
2017-07-15T20:11:27.833Z,22.20
2017-07-15T20:13:56.150Z,22.18
2017-07-15T20:16:24.504Z,21.91
2017-07-15T20:18:53.355Z,21.90
2017-07-15T20:21:21.681Z,21.79
2017-07-15T20:23:50.029Z,21.73
2017-07-15T20:26:18.969Z,21.64
2017-07-15T20:28:47.309Z,21.57
2017-07-15T20:31:15.672Z,21.55
2017-07-15T20:33:44.319Z,21.46
2017-07-15T20:36:18.234Z,21.47
2017-07-15T20:38:47.280Z,21.54
2017-07-15T20:41:15.617Z,21.39
2017-07-15T20:43:43.965Z,21.28
2017-07-15T20:46:12.622Z,21.22
2017-07-15T20:48:40.957Z,21.12
2017-07-15T20:51:09.309Z,20.88
2017-07-15T20:53:43.558Z,21.07
2017-07-15T20:56:11.891Z,20.94
2017-07-15T20:58:40.215Z,20.86
2017-07-15T21:01:09.110Z,20.96
2017-07-15T21:03:37.458Z,20.90
2017-07-15T21:06:05.794Z,20.59
2017-07-15T21:08:35.210Z,20.65
2017-07-15T21:11:03.545Z,20.56
2017-07-15T21:13:31.898Z,20.58
2017-07-15T21:16:00.686Z,20.57
2017-07-15T21:18:29.050Z,20.53
2017-07-15T21:20:57.372Z,20.51
2017-07-15T21:23:26.305Z,20.42
2017-07-15T21:25:54.650Z,20.41
2017-07-15T21:28:23.018Z,20.38
2017-07-15T21:30:51.747Z,20.11
2017-07-15T21:33:20.088Z,20.12
2017-07-15T21:35:48.429Z,20.01
2017-07-15T21:38:17.188Z,19.92
2017-07-15T21:40:45.521Z,19.84
2017-07-15T21:43:13.874Z,19.82
2017-07-15T21:45:42.555Z,19.93
2017-07-15T21:48:10.897Z,19.88
2017-07-15T21:50:39.224Z,19.74
2017-07-15T21:53:08.078Z,19.71
2017-07-15T21:55:36.451Z,19.76
2017-07-15T21:58:04.802Z,19.87
2017-07-15T22:00:33.446Z,19.74
2017-07-15T22:03:01.790Z,19.87
2017-07-15T22:05:30.163Z,19.81
2017-07-15T22:07:58.838Z,19.71
2017-07-15T22:10:27.170Z,19.63
2017-07-15T22:12:55.508Z,19.48
2017-07-15T22:15:24.286Z,19.45
2017-07-15T22:17:52.623Z,19.25
2017-07-15T22:20:20.956Z,19.25
2017-07-15T22:22:49.651Z,19.08
2017-07-15T22:25:17.974Z,19.11
2017-07-15T22:27:46.307Z,19.02
2017-07-15T22:30:15.322Z,18.87
2017-07-15T22:32:43.671Z,18.91
2017-07-15T22:35:12.794Z,18.92
2017-07-15T22:37:41.565Z,18.95
2017-07-15T22:40:09.914Z,18.98
2017-07-15T22:42:38.269Z,18.89
2017-07-15T22:45:06.963Z,18.84
2017-07-15T22:47:35.295Z,18.81
2017-07-15T22:50:03.612Z,18.72
2017-07-15T22:52:32.656Z,18.66
2017-07-15T22:55:00.982Z,18.57
2017-07-15T22:57:29.307Z,18.60
2017-07-15T22:59:58.008Z,18.72
2017-07-15T23:02:26.357Z,18.66
2017-07-15T23:04:54.691Z,18.54
2017-07-15T23:07:23.302Z,18.44
2017-07-15T23:09:51.649Z,18.43
2017-07-15T23:12:19.980Z,18.34
2017-07-15T23:14:49.320Z,18.30
2017-07-15T23:17:17.743Z,18.21
2017-07-15T23:19:46.076Z,18.03
2017-07-15T23:22:14.805Z,18.00
2017-07-15T23:24:43.134Z,18.08
2017-07-15T23:27:11.461Z,18.03
2017-07-15T23:29:40.122Z,18.07
2017-07-15T23:32:08.459Z,18.08
2017-07-15T23:34:37.582Z,18.01
2017-07-15T23:37:06.567Z,17.88
2017-07-15T23:39:34.884Z,18.09
2017-07-15T23:42:03.216Z,18.09
2017-07-15T23:44:32.823Z,17.98
2017-07-15T23:47:01.143Z,17.84
2017-07-15T23:49:29.471Z,17.75
2017-07-15T23:51:58.903Z,17.89
2017-07-15T23:54:27.247Z,17.78
2017-07-15T23:56:56.378Z,17.76
2017-07-15T23:59:25.352Z,17.56
